AFR553 TFFR-TFFG
Flight info
| Callsign | AFR553 |
|---|---|
| Flight time | 0h 41m |
| Altitude | 16000 |
| Route | BIMBO2F BIMBO A517 ZPATA DCT |
| Aircraft | AT46/M-SDFGIRY/S |
Departure
| Time | 2026-04-28 15:16 |
|---|---|
| Airport | Maryse Condé International Airport (TFFR) |
Arrival
| Time | 2026-04-28 15:57 |
|---|---|
| Airport | Grand Case-l'Espérance Airport (TFFG) |
| Time | Latitude | Longitude | Altitude | Speed | Heading |
|---|---|---|---|---|---|
| 2026-04-28 15:04 | 16.26940 | -61.52922 | 25 ft | 0 kts | 11° |
| 2026-04-28 15:09 | 16.26937 | -61.52923 | 28 ft | 0 kts | 11° |
| 2026-04-28 15:09 | 16.26936 | -61.52923 | 28 ft | 1 kts | 11° |
| 2026-04-28 15:10 | 16.26904 | -61.52939 | 27 ft | 5 kts | 64° |
| 2026-04-28 15:10 | 16.26901 | -61.52943 | 27 ft | 0 kts | 100° |
| 2026-04-28 15:10 | 16.26897 | -61.52936 | 28 ft | 3 kts | 118° |
| 2026-04-28 15:11 | 16.26895 | -61.52933 | 27 ft | 0 kts | 145° |
| 2026-04-28 15:11 | 16.26881 | -61.52927 | 25 ft | 4 kts | 162° |
| 2026-04-28 15:11 | 16.26852 | -61.52928 | 26 ft | 5 kts | 190° |
| 2026-04-28 15:11 | 16.26800 | -61.52938 | 25 ft | 15 kts | 191° |
| 2026-04-28 15:12 | 16.26708 | -61.52956 | 25 ft | 12 kts | 191° |
| 2026-04-28 15:12 | 16.26633 | -61.52971 | 26 ft | 10 kts | 191° |
| 2026-04-28 15:12 | 16.26540 | -61.52995 | 24 ft | 17 kts | 214° |
| 2026-04-28 15:12 | 16.26522 | -61.53121 | 27 ft | 26 kts | 279° |
| 2026-04-28 15:13 | 16.26555 | -61.53331 | 22 ft | 27 kts | 279° |
| 2026-04-28 15:13 | 16.26588 | -61.53503 | 22 ft | 26 kts | 282° |
| 2026-04-28 15:13 | 16.26628 | -61.53719 | 20 ft | 32 kts | 279° |
| 2026-04-28 15:13 | 16.26674 | -61.53969 | 17 ft | 36 kts | 281° |
| 2026-04-28 15:14 | 16.26721 | -61.54216 | 13 ft | 28 kts | 281° |
| 2026-04-28 15:14 | 16.26721 | -61.54363 | 11 ft | 17 kts | 244° |
| 2026-04-28 15:14 | 16.26731 | -61.54409 | 11 ft | 9 kts | 356° |
| 2026-04-28 15:14 | 16.26751 | -61.54362 | 12 ft | 8 kts | 99° |
| 2026-04-28 15:15 | 16.26740 | -61.54302 | 12 ft | 9 kts | 100° |
| 2026-04-28 15:15 | 16.26732 | -61.54253 | 13 ft | 23 kts | 101° |
| 2026-04-28 15:15 | 16.26613 | -61.53622 | 23 ft | 113 kts | 99° |
| 2026-04-28 15:15 | 16.26436 | -61.52668 | 465 ft | 133 kts | 100° |
| 2026-04-28 15:16 | 16.26301 | -61.51739 | 1345 ft | 133 kts | 96° |
| 2026-04-28 15:16 | 16.26195 | -61.50755 | 2117 ft | 140 kts | 101° |
| 2026-04-28 15:16 | 16.25985 | -61.49737 | 2892 ft | 152 kts | 105° |
| 2026-04-28 15:16 | 16.25711 | -61.48553 | 3377 ft | 183 kts | 104° |
| 2026-04-28 15:17 | 16.25410 | -61.47185 | 3874 ft | 208 kts | 103° |
| 2026-04-28 15:17 | 16.25090 | -61.45625 | 4360 ft | 227 kts | 101° |
| 2026-04-28 15:17 | 16.24793 | -61.44003 | 5034 ft | 233 kts | 101° |
| 2026-04-28 15:17 | 16.24523 | -61.42336 | 5705 ft | 237 kts | 94° |
| 2026-04-28 15:18 | 16.24883 | -61.40669 | 6168 ft | 241 kts | 59° |
| 2026-04-28 15:18 | 16.26138 | -61.39501 | 6499 ft | 243 kts | 26° |
| 2026-04-28 15:18 | 16.27696 | -61.39120 | 6793 ft | 223 kts | 359° |
| 2026-04-28 15:18 | 16.29103 | -61.39536 | 7093 ft | 206 kts | 326° |
| 2026-04-28 15:19 | 16.29794 | -61.40200 | 7292 ft | 200 kts | 307° |
| 2026-04-28 15:19 | 16.30920 | -61.41679 | 7707 ft | 190 kts | 312° |
| 2026-04-28 15:19 | 16.31758 | -61.42684 | 7996 ft | 175 kts | 302° |
| 2026-04-28 15:19 | 16.32660 | -61.43421 | 8160 ft | 168 kts | 342° |
| 2026-04-28 15:20 | 16.33385 | -61.43717 | 8198 ft | 170 kts | 335° |
| 2026-04-28 15:20 | 16.34471 | -61.44239 | 8320 ft | 172 kts | 336° |
| 2026-04-28 15:20 | 16.35537 | -61.45369 | 8544 ft | 173 kts | 286° |
| 2026-04-28 15:20 | 16.35824 | -61.46135 | 8967 ft | 173 kts | 304° |
| 2026-04-28 15:21 | 16.36820 | -61.46869 | 9494 ft | 181 kts | 339° |
| 2026-04-28 15:21 | 16.37791 | -61.47689 | 9680 ft | 190 kts | 290° |
| 2026-04-28 15:21 | 16.38143 | -61.48969 | 10172 ft | 175 kts | 281° |
| 2026-04-28 15:21 | 16.38733 | -61.50067 | 10254 ft | 189 kts | 315° |
| 2026-04-28 15:22 | 16.39441 | -61.51183 | 10591 ft | 185 kts | 287° |
| 2026-04-28 15:22 | 16.39904 | -61.52486 | 10796 ft | 196 kts | 291° |
| 2026-04-28 15:22 | 16.40505 | -61.53797 | 11002 ft | 208 kts | 296° |
| 2026-04-28 15:22 | 16.41222 | -61.55166 | 11207 ft | 219 kts | 297° |
| 2026-04-28 15:23 | 16.41986 | -61.56564 | 11409 ft | 228 kts | 298° |
| 2026-04-28 15:23 | 16.42777 | -61.58030 | 11608 ft | 236 kts | 297° |
| 2026-04-28 15:23 | 16.43585 | -61.59558 | 11813 ft | 243 kts | 297° |
| 2026-04-28 15:23 | 16.44398 | -61.61107 | 12045 ft | 247 kts | 297° |
| 2026-04-28 15:24 | 16.45229 | -61.62692 | 12297 ft | 250 kts | 297° |
| 2026-04-28 15:24 | 16.46071 | -61.64302 | 12549 ft | 253 kts | 297° |
| 2026-04-28 15:24 | 16.46921 | -61.65926 | 12799 ft | 255 kts | 297° |
| 2026-04-28 15:24 | 16.47765 | -61.67539 | 13047 ft | 257 kts | 297° |
| 2026-04-28 15:25 | 16.48630 | -61.69194 | 13296 ft | 258 kts | 297° |
| 2026-04-28 15:25 | 16.49490 | -61.70837 | 13546 ft | 260 kts | 297° |
| 2026-04-28 15:25 | 16.49932 | -61.71684 | 13674 ft | 260 kts | 297° |
| 2026-04-28 15:25 | 16.50512 | -61.72828 | 13845 ft | 249 kts | 295° |
| 2026-04-28 15:26 | 16.51254 | -61.74383 | 14081 ft | 229 kts | 295° |
| 2026-04-28 15:26 | 16.51965 | -61.75811 | 14326 ft | 212 kts | 296° |
| 2026-04-28 15:26 | 16.52716 | -61.77135 | 14578 ft | 217 kts | 300° |
| 2026-04-28 15:26 | 16.53514 | -61.78482 | 14833 ft | 222 kts | 300° |
| 2026-04-28 15:27 | 16.54306 | -61.79899 | 15091 ft | 227 kts | 298° |
| 2026-04-28 15:27 | 16.55068 | -61.81347 | 15342 ft | 232 kts | 297° |
| 2026-04-28 15:27 | 16.55856 | -61.82874 | 15598 ft | 240 kts | 297° |
| 2026-04-28 15:27 | 16.56652 | -61.84414 | 15818 ft | 245 kts | 297° |
| 2026-04-28 15:28 | 16.57478 | -61.85998 | 15909 ft | 256 kts | 297° |
| 2026-04-28 15:28 | 16.58345 | -61.87660 | 15955 ft | 266 kts | 298° |
| 2026-04-28 15:28 | 16.59243 | -61.89380 | 15974 ft | 268 kts | 297° |
| 2026-04-28 15:28 | 16.60130 | -61.91088 | 15984 ft | 271 kts | 297° |
| 2026-04-28 15:29 | 16.61034 | -61.92813 | 15986 ft | 272 kts | 298° |
| 2026-04-28 15:29 | 16.61950 | -61.94567 | 15989 ft | 277 kts | 298° |
| 2026-04-28 15:29 | 16.62883 | -61.96337 | 15988 ft | 282 kts | 301° |
| 2026-04-28 15:29 | 16.64123 | -61.97967 | 15990 ft | 289 kts | 312° |
| 2026-04-28 15:30 | 16.65515 | -61.99474 | 15992 ft | 293 kts | 314° |
| 2026-04-28 15:30 | 16.66942 | -62.00998 | 15992 ft | 295 kts | 313° |
| 2026-04-28 15:30 | 16.68339 | -62.02574 | 15992 ft | 297 kts | 311° |
| 2026-04-28 15:30 | 16.69721 | -62.04203 | 15991 ft | 298 kts | 311° |
| 2026-04-28 15:31 | 16.71099 | -62.05809 | 15991 ft | 299 kts | 311° |
| 2026-04-28 15:31 | 16.72482 | -62.07422 | 15991 ft | 300 kts | 311° |
| 2026-04-28 15:31 | 16.73891 | -62.09068 | 15990 ft | 301 kts | 311° |
| 2026-04-28 15:31 | 16.75277 | -62.10688 | 15990 ft | 301 kts | 311° |
| 2026-04-28 15:32 | 16.76683 | -62.12332 | 15991 ft | 302 kts | 311° |
| 2026-04-28 15:32 | 16.78072 | -62.13955 | 15991 ft | 302 kts | 311° |
| 2026-04-28 15:32 | 16.79481 | -62.15602 | 15991 ft | 302 kts | 311° |
| 2026-04-28 15:32 | 16.80874 | -62.17231 | 15991 ft | 302 kts | 311° |
| 2026-04-28 15:33 | 16.82264 | -62.18857 | 15992 ft | 303 kts | 311° |
| 2026-04-28 15:33 | 16.83673 | -62.20504 | 15992 ft | 303 kts | 311° |
| 2026-04-28 15:33 | 16.85067 | -62.22135 | 15992 ft | 303 kts | 311° |
| 2026-04-28 15:33 | 16.86480 | -62.23789 | 15991 ft | 303 kts | 311° |
| 2026-04-28 15:34 | 16.87874 | -62.25421 | 15991 ft | 303 kts | 311° |
| 2026-04-28 15:34 | 16.89291 | -62.27081 | 15991 ft | 303 kts | 311° |
| 2026-04-28 15:34 | 16.90684 | -62.28713 | 15991 ft | 303 kts | 311° |
| 2026-04-28 15:34 | 16.92093 | -62.30364 | 15991 ft | 303 kts | 311° |
| 2026-04-28 15:35 | 16.93488 | -62.31998 | 15991 ft | 303 kts | 311° |
| 2026-04-28 15:35 | 16.96294 | -62.35286 | 15991 ft | 304 kts | 311° |
| 2026-04-28 15:35 | 16.97706 | -62.36941 | 15991 ft | 304 kts | 311° |
| 2026-04-28 15:36 | 16.99103 | -62.38580 | 15992 ft | 304 kts | 311° |
| 2026-04-28 15:36 | 17.00516 | -62.40238 | 15991 ft | 304 kts | 311° |
| 2026-04-28 15:36 | 17.01911 | -62.41877 | 15992 ft | 304 kts | 311° |
| 2026-04-28 15:36 | 17.03315 | -62.43525 | 15992 ft | 304 kts | 311° |
| 2026-04-28 15:37 | 17.04727 | -62.45183 | 15991 ft | 304 kts | 311° |
| 2026-04-28 15:37 | 17.06123 | -62.46822 | 15992 ft | 304 kts | 311° |
| 2026-04-28 15:37 | 17.07531 | -62.48475 | 15991 ft | 304 kts | 311° |
| 2026-04-28 15:37 | 17.08927 | -62.50115 | 15991 ft | 304 kts | 311° |
| 2026-04-28 15:38 | 17.10338 | -62.51772 | 15992 ft | 304 kts | 311° |
| 2026-04-28 15:38 | 17.11745 | -62.53435 | 15992 ft | 304 kts | 311° |
| 2026-04-28 15:38 | 17.13138 | -62.55068 | 15993 ft | 304 kts | 311° |
| 2026-04-28 15:38 | 17.14555 | -62.56736 | 15991 ft | 304 kts | 311° |
| 2026-04-28 15:39 | 17.15950 | -62.58374 | 15991 ft | 304 kts | 311° |
| 2026-04-28 15:39 | 17.17360 | -62.60033 | 15991 ft | 304 kts | 311° |
| 2026-04-28 15:39 | 17.18763 | -62.61694 | 15992 ft | 304 kts | 311° |
| 2026-04-28 15:39 | 17.20146 | -62.63346 | 15992 ft | 304 kts | 310° |
| 2026-04-28 15:40 | 17.21549 | -62.65028 | 15991 ft | 304 kts | 310° |
| 2026-04-28 15:40 | 17.22938 | -62.66687 | 15993 ft | 304 kts | 311° |
| 2026-04-28 15:40 | 17.24327 | -62.68330 | 15992 ft | 304 kts | 311° |
| 2026-04-28 15:40 | 17.25738 | -62.69995 | 15991 ft | 304 kts | 311° |
| 2026-04-28 15:41 | 17.27132 | -62.71639 | 15991 ft | 304 kts | 311° |
| 2026-04-28 15:41 | 17.28546 | -62.73310 | 15992 ft | 304 kts | 311° |
| 2026-04-28 15:41 | 17.30075 | -62.74830 | 15991 ft | 302 kts | 327° |
| 2026-04-28 15:41 | 17.31940 | -62.75816 | 15993 ft | 305 kts | 336° |
| 2026-04-28 15:42 | 17.33909 | -62.76688 | 15992 ft | 305 kts | 337° |
| 2026-04-28 15:42 | 17.35848 | -62.77549 | 15992 ft | 306 kts | 336° |
| 2026-04-28 15:42 | 17.37799 | -62.78490 | 15655 ft | 311 kts | 334° |
| 2026-04-28 15:42 | 17.39763 | -62.79485 | 15277 ft | 311 kts | 333° |
| 2026-04-28 15:43 | 17.41710 | -62.80473 | 14904 ft | 312 kts | 334° |
| 2026-04-28 15:43 | 17.43646 | -62.81452 | 14539 ft | 308 kts | 334° |
| 2026-04-28 15:43 | 17.45584 | -62.82413 | 14165 ft | 304 kts | 334° |
| 2026-04-28 15:43 | 17.47472 | -62.83356 | 13790 ft | 300 kts | 334° |
| 2026-04-28 15:44 | 17.49395 | -62.84149 | 13419 ft | 299 kts | 341° |
| 2026-04-28 15:44 | 17.51391 | -62.84790 | 13031 ft | 297 kts | 343° |
| 2026-04-28 15:44 | 17.53371 | -62.85397 | 12672 ft | 296 kts | 343° |
| 2026-04-28 15:44 | 17.55326 | -62.86027 | 12307 ft | 294 kts | 342° |
| 2026-04-28 15:45 | 17.57253 | -62.86685 | 12009 ft | 291 kts | 341° |
| 2026-04-28 15:45 | 17.59192 | -62.87355 | 11757 ft | 292 kts | 341° |
| 2026-04-28 15:45 | 17.61128 | -62.88022 | 11507 ft | 293 kts | 341° |
| 2026-04-28 15:45 | 17.63049 | -62.88678 | 11259 ft | 294 kts | 341° |
| 2026-04-28 15:46 | 17.65000 | -62.89344 | 11009 ft | 294 kts | 341° |
| 2026-04-28 15:46 | 17.66957 | -62.90016 | 10760 ft | 291 kts | 341° |
| 2026-04-28 15:46 | 17.68849 | -62.90665 | 10505 ft | 283 kts | 341° |
| 2026-04-28 15:46 | 17.70697 | -62.91301 | 10171 ft | 280 kts | 341° |
| 2026-04-28 15:47 | 17.72557 | -62.91941 | 9792 ft | 279 kts | 341° |
| 2026-04-28 15:47 | 17.74387 | -62.92570 | 9418 ft | 278 kts | 341° |
| 2026-04-28 15:47 | 17.76233 | -62.93204 | 9040 ft | 276 kts | 341° |
| 2026-04-28 15:47 | 17.78048 | -62.93828 | 8666 ft | 275 kts | 341° |
| 2026-04-28 15:48 | 17.79856 | -62.94450 | 8292 ft | 274 kts | 341° |
| 2026-04-28 15:48 | 17.81678 | -62.95078 | 7912 ft | 274 kts | 341° |
| 2026-04-28 15:48 | 17.83498 | -62.95546 | 7537 ft | 270 kts | 352° |
| 2026-04-28 15:48 | 17.85380 | -62.95736 | 7157 ft | 271 kts | 355° |
| 2026-04-28 15:49 | 17.87250 | -62.95868 | 6786 ft | 270 kts | 356° |
| 2026-04-28 15:49 | 17.89087 | -62.95974 | 6381 ft | 258 kts | 356° |
| 2026-04-28 15:49 | 17.90866 | -62.96069 | 5753 ft | 257 kts | 356° |
| 2026-04-28 15:49 | 17.92653 | -62.96163 | 5203 ft | 254 kts | 356° |
| 2026-04-28 15:50 | 17.94392 | -62.96254 | 4704 ft | 249 kts | 356° |
| 2026-04-28 15:50 | 17.96118 | -62.96345 | 4201 ft | 245 kts | 356° |
| 2026-04-28 15:50 | 17.97809 | -62.96434 | 3707 ft | 242 kts | 356° |
| 2026-04-28 15:50 | 17.99509 | -62.96531 | 3270 ft | 253 kts | 356° |
| 2026-04-28 15:51 | 18.01228 | -62.96626 | 3079 ft | 243 kts | 356° |
| 2026-04-28 15:51 | 18.02899 | -62.96715 | 2983 ft | 242 kts | 356° |
| 2026-04-28 15:51 | 18.04603 | -62.96826 | 2938 ft | 253 kts | 356° |
| 2026-04-28 15:51 | 18.06365 | -62.97049 | 2922 ft | 253 kts | 344° |
| 2026-04-28 15:52 | 18.08032 | -62.97598 | 2910 ft | 254 kts | 341° |
| 2026-04-28 15:52 | 18.09711 | -62.98210 | 2905 ft | 255 kts | 340° |
| 2026-04-28 15:52 | 18.11390 | -62.98842 | 2840 ft | 258 kts | 339° |
| 2026-04-28 15:52 | 18.12981 | -62.99513 | 2585 ft | 234 kts | 328° |
| 2026-04-28 15:53 | 18.13979 | -63.00733 | 2337 ft | 215 kts | 292° |
| 2026-04-28 15:53 | 18.14477 | -63.02173 | 2102 ft | 201 kts | 288° |
| 2026-04-28 15:53 | 18.14888 | -63.03512 | 1964 ft | 186 kts | 287° |
| 2026-04-28 15:53 | 18.15257 | -63.04774 | 1717 ft | 173 kts | 286° |
| 2026-04-28 15:54 | 18.15585 | -63.05925 | 1523 ft | 151 kts | 285° |
| 2026-04-28 15:54 | 18.15837 | -63.06901 | 1446 ft | 127 kts | 275° |
| 2026-04-28 15:54 | 18.15483 | -63.07619 | 1418 ft | 113 kts | 208° |
| 2026-04-28 15:54 | 18.14702 | -63.07926 | 1419 ft | 122 kts | 199° |
| 2026-04-28 15:55 | 18.13909 | -63.08196 | 1415 ft | 120 kts | 198° |
| 2026-04-28 15:55 | 18.13110 | -63.08471 | 1381 ft | 117 kts | 200° |
| 2026-04-28 15:55 | 18.12356 | -63.08637 | 1147 ft | 113 kts | 178° |
| 2026-04-28 15:55 | 18.11618 | -63.08369 | 1042 ft | 120 kts | 150° |
| 2026-04-28 15:56 | 18.11067 | -63.07687 | 834 ft | 122 kts | 119° |
| 2026-04-28 15:56 | 18.10710 | -63.06904 | 502 ft | 118 kts | 117° |
| 2026-04-28 15:56 | 18.10404 | -63.06109 | 263 ft | 119 kts | 109° |
| 2026-04-28 15:56 | 18.10175 | -63.05309 | 58 ft | 109 kts | 109° |
| 2026-04-28 15:57 | 18.09997 | -63.04725 | 18 ft | 38 kts | 104° |
| 2026-04-28 15:57 | 18.09948 | -63.04592 | 17 ft | 7 kts | 97° |
| 2026-04-28 15:57 | 18.09959 | -63.04572 | 19 ft | 0 kts | 24° |
| 2026-04-28 15:57 | 18.09963 | -63.04585 | 19 ft | 11 kts | 282° |
| 2026-04-28 15:58 | 18.09985 | -63.04672 | 17 ft | 12 kts | 287° |
| 2026-04-28 15:58 | 18.10008 | -63.04745 | 17 ft | 10 kts | 295° |
| 2026-04-28 15:58 | 18.10057 | -63.04755 | 18 ft | 8 kts | 16° |
| 2026-04-28 15:58 | 18.10093 | -63.04757 | 17 ft | 3 kts | 305° |
| 2026-04-28 15:59 | 18.10106 | -63.04793 | 16 ft | 1 kts | 288° |
| 2026-04-28 15:59 | 18.10114 | -63.04804 | 16 ft | 5 kts | 328° |
| 2026-04-28 15:59 | 18.10152 | -63.04792 | 16 ft | 1 kts | 69° |
| 2026-04-28 15:59 | 18.10150 | -63.04780 | 16 ft | 2 kts | 109° |
| 2026-04-28 16:00 | 18.10149 | -63.04776 | 16 ft | 0 kts | 109° |